createdAt,value
2023-03-08T00:02:31.885Z,99985.48
2023-03-08T00:05:02.070Z,99984.37
2023-03-08T00:07:31.116Z,99983.67
2023-03-08T00:10:00.304Z,99984.36
2023-03-08T00:12:29.137Z,99982.32
2023-03-08T00:14:57.542Z,99978.02
2023-03-08T00:17:31.071Z,99981.14
2023-03-08T00:20:00.018Z,99983.16
2023-03-08T00:22:28.562Z,99980.20
2023-03-08T00:24:57.062Z,99985.98
2023-03-08T00:27:27.296Z,99983.98
2023-03-08T00:29:56.278Z,99988.50
2023-03-08T00:32:28.054Z,99983.52
2023-03-08T00:34:56.907Z,99976.43
2023-03-08T00:37:26.915Z,99976.20
2023-03-08T00:39:56.005Z,99977.91
2023-03-08T00:42:31.061Z,99982.96
2023-03-08T00:45:00.264Z,99980.55
2023-03-08T00:47:30.113Z,99981.70
2023-03-08T00:49:58.970Z,99982.09
2023-03-08T00:52:27.600Z,99981.52
2023-03-08T00:54:56.343Z,99977.66
2023-03-08T00:57:26.312Z,99978.58
2023-03-08T00:59:56.029Z,99978.38
2023-03-08T01:02:24.993Z,99981.94
2023-03-08T01:04:53.629Z,99975.08
2023-03-08T01:07:24.338Z,99981.08
2023-03-08T01:09:55.964Z,99984.55
2023-03-08T01:12:26.157Z,99982.90
2023-03-08T01:14:55.236Z,99983.79
2023-03-08T01:17:23.635Z,99983.11
2023-03-08T01:19:52.916Z,99988.25
2023-03-08T01:22:21.542Z,99989.89
2023-03-08T01:24:50.207Z,99992.99
2023-03-08T01:27:19.443Z,99997.52
2023-03-08T01:29:48.544Z,99997.14
2023-03-08T01:32:17.212Z,99994.48
2023-03-08T01:34:46.288Z,99993.16
2023-03-08T01:37:14.653Z,99993.56
2023-03-08T01:39:43.867Z,99986.76
2023-03-08T01:42:12.636Z,99988.61
2023-03-08T01:45:03.546Z,99986.75
2023-03-08T01:47:36.245Z,99983.02
2023-03-08T01:50:27.716Z,99977.03
2023-03-08T01:52:56.992Z,99968.38
2023-03-08T01:55:25.569Z,99967.67
2023-03-08T01:57:55.167Z,99966.16
2023-03-08T02:00:24.983Z,99966.77
2023-03-08T02:03:02.529Z,99966.68
2023-03-08T02:05:31.670Z,99962.80
2023-03-08T02:08:06.499Z,99962.85
2023-03-08T02:10:37.829Z,99959.81
2023-03-08T02:13:07.101Z,99953.25
2023-03-08T02:15:36.516Z,99956.04
2023-03-08T02:18:05.402Z,99954.27
2023-03-08T02:20:40.537Z,99954.97
2023-03-08T02:23:09.886Z,99950.89
2023-03-08T02:25:38.882Z,99954.45
2023-03-08T02:28:10.098Z,99957.05
2023-03-08T02:30:39.101Z,99957.36
2023-03-08T02:33:07.640Z,99956.23
2023-03-08T02:35:36.562Z,99952.98
2023-03-08T02:38:06.182Z,99953.23
2023-03-08T02:40:37.252Z,99958.86
2023-03-08T02:43:05.631Z,99952.83
2023-03-08T02:45:34.370Z,99955.09
2023-03-08T02:48:04.077Z,99968.19
2023-03-08T02:50:32.872Z,99975.58
2023-03-08T02:53:04.637Z,99977.30
2023-03-08T02:55:37.455Z,99979.71
2023-03-08T02:58:10.443Z,99988.74
2023-03-08T03:00:39.273Z,99999.00
2023-03-08T03:03:09.527Z,99997.05
2023-03-08T03:05:43.492Z,99997.13
2023-03-08T03:08:13.721Z,99991.11
2023-03-08T03:10:42.325Z,99991.95
2023-03-08T03:13:12.447Z,99994.12
2023-03-08T03:15:41.205Z,100001.61
2023-03-08T03:18:11.923Z,100002.20
2023-03-08T03:20:40.320Z,100001.88
2023-03-08T03:23:12.257Z,100003.38
2023-03-08T03:25:52.117Z,100003.61
2023-03-08T03:28:21.367Z,100007.95
2023-03-08T03:30:52.260Z,100005.52
2023-03-08T03:33:21.929Z,100006.80
2023-03-08T03:35:52.204Z,100010.87
2023-03-08T03:38:22.133Z,100005.58
2023-03-08T03:41:04.014Z,100005.80
2023-03-08T03:43:34.446Z,100002.31
2023-03-08T03:46:07.002Z,100010.35
2023-03-08T03:48:36.006Z,100011.45
2023-03-08T03:51:11.449Z,100006.94
2023-03-08T03:53:43.534Z,99998.14
2023-03-08T03:56:14.295Z,99999.92
2023-03-08T03:58:43.427Z,100005.00
2023-03-08T04:01:15.574Z,100009.90
2023-03-08T04:03:44.994Z,100005.23
2023-03-08T04:06:16.945Z,100009.05
2023-03-08T04:08:53.186Z,100017.23
2023-03-08T04:11:24.731Z,100014.36
2023-03-08T04:13:53.551Z,100011.01
2023-03-08T04:16:30.185Z,100010.69
2023-03-08T04:19:05.337Z,100013.41
2023-03-08T04:21:34.085Z,100017.16
2023-03-08T04:24:02.936Z,100021.38
2023-03-08T04:26:32.895Z,100023.77
2023-03-08T04:29:06.416Z,100018.95
2023-03-08T04:31:37.410Z,100011.23
2023-03-08T04:34:10.217Z,100003.44
2023-03-08T04:36:39.227Z,100000.27
2023-03-08T04:39:08.107Z,99997.30
2023-03-08T04:41:42.629Z,100001.27
2023-03-08T04:44:16.372Z,100005.39
2023-03-08T04:46:48.311Z,100000.80
2023-03-08T04:49:21.795Z,99994.42
2023-03-08T04:51:53.871Z,100002.13
2023-03-08T04:54:24.198Z,100002.83
2023-03-08T04:56:58.385Z,100004.23
2023-03-08T04:59:31.102Z,100007.51
2023-03-08T05:02:01.910Z,100006.17
2023-03-08T05:04:31.420Z,99998.55
2023-03-08T05:06:59.737Z,99998.00
2023-03-08T05:09:30.422Z,100001.66
2023-03-08T05:11:59.659Z,100006.02
2023-03-08T05:14:35.082Z,100007.73
2023-03-08T05:17:04.287Z,99999.95
2023-03-08T05:19:34.989Z,99989.42
2023-03-08T05:22:03.557Z,99980.93
2023-03-08T05:24:32.790Z,99981.71
2023-03-08T05:27:10.422Z,99992.47
2023-03-08T05:29:39.523Z,99999.63
2023-03-08T05:32:12.559Z,100002.89
2023-03-08T05:34:42.046Z,100000.34
2023-03-08T05:37:13.617Z,100005.15
2023-03-08T05:39:44.049Z,100010.46
2023-03-08T05:42:17.176Z,100011.55
2023-03-08T05:44:46.987Z,100026.81
2023-03-08T05:47:18.484Z,100028.99
2023-03-08T05:49:52.372Z,100027.44
2023-03-08T05:52:21.694Z,100027.50
2023-03-08T05:54:50.593Z,100033.04
2023-03-08T05:57:21.277Z,100032.73
2023-03-08T05:59:51.193Z,100033.42
2023-03-08T06:02:22.260Z,100035.84
2023-03-08T06:04:54.084Z,100027.96
2023-03-08T06:07:24.673Z,100022.54
2023-03-08T06:09:59.854Z,100014.10
2023-03-08T06:12:31.561Z,100006.16
2023-03-08T06:15:02.459Z,99994.38
2023-03-08T06:17:34.796Z,99994.91
2023-03-08T06:20:03.552Z,99988.88
2023-03-08T06:22:33.529Z,99992.96
2023-03-08T06:25:05.988Z,99988.45
2023-03-08T06:27:38.168Z,99982.79
2023-03-08T06:30:12.114Z,99971.06
2023-03-08T06:32:42.047Z,99963.17
2023-03-08T06:35:11.127Z,99957.64
2023-03-08T06:37:43.931Z,99956.56
2023-03-08T06:40:13.752Z,99956.60
2023-03-08T06:42:44.752Z,99954.92
2023-03-08T06:45:15.579Z,99959.36
2023-03-08T06:47:44.067Z,99952.33
2023-03-08T06:50:14.386Z,99955.05
2023-03-08T06:52:45.214Z,99950.78
2023-03-08T06:55:15.146Z,99951.39
2023-03-08T06:57:44.056Z,99953.63
2023-03-08T07:00:15.819Z,99948.79
2023-03-08T07:02:46.334Z,99944.98
2023-03-08T07:05:16.145Z,99938.82
2023-03-08T07:07:47.651Z,99935.64
2023-03-08T07:10:18.027Z,99927.09
2023-03-08T07:12:50.603Z,99929.66
2023-03-08T07:15:21.030Z,99934.23
2023-03-08T07:17:51.980Z,99925.10
2023-03-08T07:20:20.521Z,99929.02
2023-03-08T07:22:50.300Z,99927.20
2023-03-08T07:25:20.797Z,99922.67
2023-03-08T07:27:50.186Z,99917.01
2023-03-08T07:30:18.805Z,99907.52
2023-03-08T07:32:47.476Z,99904.67
2023-03-08T07:35:20.090Z,99898.05
2023-03-08T07:37:49.216Z,99904.64
2023-03-08T07:40:18.429Z,99903.55
2023-03-08T07:42:47.647Z,99902.27
2023-03-08T07:45:33.631Z,99903.39
2023-03-08T07:48:02.451Z,99902.96
2023-03-08T07:50:31.509Z,99901.29
2023-03-08T07:53:00.434Z,99898.48
2023-03-08T07:55:29.425Z,99895.95
2023-03-08T07:57:58.186Z,99889.22
2023-03-08T08:00:27.596Z,99888.80
2023-03-08T08:02:56.244Z,99880.05
2023-03-08T08:05:25.708Z,99872.32
2023-03-08T08:07:54.562Z,99871.25
2023-03-08T08:10:23.261Z,99881.22
2023-03-08T08:12:56.810Z,99874.20
2023-03-08T08:15:25.966Z,99878.54
2023-03-08T08:17:54.352Z,99878.80
2023-03-08T08:20:22.987Z,99878.37
2023-03-08T08:22:53.619Z,99871.55
2023-03-08T08:25:23.975Z,99877.14
2023-03-08T08:27:52.622Z,99881.23
2023-03-08T08:30:21.179Z,99879.25
2023-03-08T08:32:53.631Z,99879.70
2023-03-08T08:35:25.466Z,99877.11
2023-03-08T08:37:59.783Z,99879.77
2023-03-08T08:40:28.684Z,99874.07
2023-03-08T08:42:57.499Z,99876.12
2023-03-08T08:45:26.440Z,99880.08
2023-03-08T08:47:54.931Z,99875.23
2023-03-08T08:50:23.419Z,99868.70
2023-03-08T08:52:52.015Z,99863.18
2023-03-08T08:55:20.878Z,99855.11
2023-03-08T08:57:49.675Z,99850.15
2023-03-08T09:00:19.945Z,99843.76
2023-03-08T09:02:48.607Z,99843.09
2023-03-08T09:05:17.517Z,99846.98
2023-03-08T09:07:46.510Z,99857.14
2023-03-08T09:10:14.889Z,99848.77
2023-03-08T09:12:43.504Z,99847.77
2023-03-08T09:15:12.275Z,99841.63
2023-03-08T09:17:41.123Z,99845.95
2023-03-08T09:20:13.843Z,99843.70
2023-03-08T09:22:42.989Z,99839.66
2023-03-08T09:25:11.824Z,99842.14
2023-03-08T09:27:40.960Z,99840.23
2023-03-08T09:30:13.043Z,99847.08
2023-03-08T09:32:41.787Z,99844.11
2023-03-08T09:35:10.947Z,99830.33
2023-03-08T09:37:39.397Z,99823.55
2023-03-08T09:40:11.583Z,99818.93
2023-03-08T09:42:40.656Z,99817.02
2023-03-08T09:45:19.044Z,99808.42
2023-03-08T09:47:50.910Z,99799.52
2023-03-08T09:50:32.915Z,99808.03
2023-03-08T09:53:42.089Z,99802.14
2023-03-08T09:56:24.892Z,99788.08
2023-03-08T09:59:14.452Z,99795.41
2023-03-08T10:01:52.995Z,99780.50
2023-03-08T10:04:24.654Z,99782.70
2023-03-08T10:07:21.747Z,99782.77
2023-03-08T10:10:02.954Z,99781.38
2023-03-08T10:12:52.694Z,99785.59
2023-03-08T10:15:26.058Z,99784.83
2023-03-08T10:17:59.685Z,99788.39
2023-03-08T10:20:28.143Z,99783.19
2023-03-08T10:23:02.238Z,99776.87
2023-03-08T10:25:34.246Z,99783.05
2023-03-08T10:28:04.131Z,99766.05
2023-03-08T10:30:36.262Z,99761.50
2023-03-08T10:33:07.929Z,99767.31
2023-03-08T10:35:56.344Z,99767.43
2023-03-08T10:38:31.521Z,99761.30
2023-03-08T10:41:02.258Z,99764.36
2023-03-08T10:43:33.078Z,99758.92
2023-03-08T10:46:04.781Z,99748.52
2023-03-08T10:48:33.590Z,99748.92
2023-03-08T10:51:30.573Z,99750.55
2023-03-08T10:54:00.943Z,99743.27
2023-03-08T10:56:33.015Z,99747.47
2023-03-08T10:59:01.525Z,99746.48
2023-03-08T11:01:32.404Z,99743.45
2023-03-08T11:04:13.396Z,99739.02
2023-03-08T11:06:42.021Z,99738.23
2023-03-08T11:09:24.321Z,99738.13
2023-03-08T11:11:53.193Z,99737.05
2023-03-08T11:14:21.840Z,99742.58
2023-03-08T11:16:59.826Z,99738.75
2023-03-08T11:19:43.414Z,99734.02
2023-03-08T11:22:43.459Z,99729.52
2023-03-08T11:25:50.173Z,99730.59
2023-03-08T11:28:27.000Z,99734.52
2023-03-08T11:31:08.815Z,99742.76
2023-03-08T11:33:50.695Z,99742.45
2023-03-08T11:36:19.399Z,99740.52
2023-03-08T11:38:52.595Z,99746.11
2023-03-08T11:41:40.502Z,99731.88
2023-03-08T11:44:16.787Z,99736.23
2023-03-08T11:47:03.610Z,99737.90
2023-03-08T11:49:34.691Z,99734.76
2023-03-08T11:52:28.829Z,99725.67
2023-03-08T11:55:10.791Z,99727.39
2023-03-08T11:57:44.040Z,99722.67
2023-03-08T12:00:30.149Z,99728.65
2023-03-08T12:03:01.142Z,99726.33
2023-03-08T12:05:33.756Z,99724.83
2023-03-08T12:08:05.679Z,99719.34
2023-03-08T12:10:35.976Z,99718.80
2023-03-08T12:13:23.592Z,99720.59
2023-03-08T12:15:57.832Z,99717.98
2023-03-08T12:18:34.797Z,99714.86
2023-03-08T12:21:13.489Z,99718.48
2023-03-08T12:24:26.309Z,99715.98
2023-03-08T12:27:00.497Z,99712.91
2023-03-08T12:29:55.556Z,99720.75
2023-03-08T12:32:27.937Z,99721.60
2023-03-08T12:35:24.807Z,99722.59
2023-03-08T12:38:07.857Z,99713.89
2023-03-08T12:40:50.376Z,99715.46
2023-03-08T12:43:22.584Z,99721.05
2023-03-08T12:46:01.878Z,99725.24
2023-03-08T12:48:56.005Z,99724.68
2023-03-08T12:51:33.299Z,99727.02
2023-03-08T12:54:06.128Z,99724.53
2023-03-08T12:56:49.943Z,99725.81
2023-03-08T12:59:22.641Z,99723.96
2023-03-08T13:01:58.096Z,99726.31
2023-03-08T13:04:40.032Z,99725.71
2023-03-08T13:07:20.852Z,99729.39
2023-03-08T13:10:19.909Z,99730.73
2023-03-08T13:13:00.352Z,99730.40
2023-03-08T13:15:29.241Z,99727.17
2023-03-08T13:18:00.150Z,99729.23
2023-03-08T13:20:42.014Z,99727.98
2023-03-08T13:23:13.965Z,99724.29
2023-03-08T13:26:05.391Z,99724.96
2023-03-08T13:28:46.677Z,99721.98
2023-03-08T13:31:21.025Z,99722.52
2023-03-08T13:33:55.525Z,99718.04
2023-03-08T13:36:31.786Z,99719.35
2023-03-08T13:39:21.255Z,99715.83
2023-03-08T13:41:50.033Z,99712.16
2023-03-08T13:44:23.699Z,99711.53
2023-03-08T13:46:55.336Z,99705.84
2023-03-08T13:49:31.719Z,99703.02
2023-03-08T13:52:01.710Z,99703.34
2023-03-08T13:54:36.874Z,99706.01
2023-03-08T13:57:17.563Z,99707.86
2023-03-08T13:59:52.086Z,99707.27
2023-03-08T14:02:25.618Z,99709.39
2023-03-08T14:04:54.504Z,99704.23
2023-03-08T14:07:32.423Z,99700.70
2023-03-08T14:10:01.578Z,99700.55
2023-03-08T14:12:31.960Z,99700.15
2023-03-08T14:15:03.164Z,99698.39
2023-03-08T14:17:35.194Z,99698.39
2023-03-08T14:20:13.687Z,99700.65
2023-03-08T14:22:42.350Z,99700.86
2023-03-08T14:25:25.701Z,99701.58
2023-03-08T14:27:55.378Z,99697.42
2023-03-08T14:30:30.564Z,99698.95
2023-03-08T14:33:08.322Z,99700.79
2023-03-08T14:35:40.162Z,99702.06
2023-03-08T14:38:20.742Z,99700.70
2023-03-08T14:40:52.338Z,99696.73
2023-03-08T14:43:22.810Z,99690.16
2023-03-08T14:45:59.984Z,99693.25
2023-03-08T14:48:30.922Z,99692.75
2023-03-08T14:51:19.065Z,99692.58
2023-03-08T14:54:00.010Z,99689.98
2023-03-08T14:56:33.348Z,99685.36
2023-03-08T14:59:04.411Z,99689.52
2023-03-08T15:01:36.441Z,99682.41
2023-03-08T15:04:13.269Z,99682.11
2023-03-08T15:06:44.993Z,99684.79
2023-03-08T15:09:18.321Z,99689.39
2023-03-08T15:11:49.112Z,99686.23
2023-03-08T15:14:17.951Z,99685.14
2023-03-08T15:16:47.787Z,99685.38
2023-03-08T15:19:17.137Z,99688.89
2023-03-08T15:21:45.396Z,99684.68
2023-03-08T15:24:19.658Z,99692.33
2023-03-08T15:26:48.704Z,99692.87
2023-03-08T15:29:38.675Z,99694.45
2023-03-08T15:32:07.872Z,99695.82
2023-03-08T15:34:36.695Z,99695.41
2023-03-08T15:37:07.145Z,99694.98
2023-03-08T15:39:35.724Z,99695.21
2023-03-08T15:42:04.925Z,99695.27
2023-03-08T15:44:34.210Z,99697.49
2023-03-08T15:47:02.870Z,99702.89
2023-03-08T15:49:32.685Z,99704.61
2023-03-08T15:52:01.177Z,99704.80
2023-03-08T15:54:32.106Z,99703.79
2023-03-08T15:57:00.822Z,99705.80
2023-03-08T15:59:29.269Z,99703.08
2023-03-08T16:01:57.952Z,99701.33
2023-03-08T16:04:26.419Z,99701.67
2023-03-08T16:06:55.220Z,99702.72
2023-03-08T16:09:24.664Z,99700.48
2023-03-08T16:11:58.976Z,99701.00
2023-03-08T16:14:27.687Z,99703.46
2023-03-08T16:16:59.555Z,99703.48
2023-03-08T16:19:42.886Z,99705.77
2023-03-08T16:22:11.594Z,99703.86
2023-03-08T16:24:42.365Z,99707.30
2023-03-08T16:27:11.167Z,99707.21
2023-03-08T16:29:39.672Z,99707.34
2023-03-08T16:32:08.628Z,99706.56
2023-03-08T16:34:39.123Z,99707.44
2023-03-08T16:37:07.439Z,99706.39
2023-03-08T16:39:38.366Z,99712.76
2023-03-08T16:42:13.531Z,99712.80
2023-03-08T16:44:51.077Z,99712.46
2023-03-08T16:47:20.321Z,99714.52
2023-03-08T16:49:53.747Z,99717.22
2023-03-08T16:52:22.844Z,99716.35
2023-03-08T16:54:51.657Z,99720.69
2023-03-08T16:57:21.990Z,99718.63
2023-03-08T16:59:50.423Z,99724.35
2023-03-08T17:02:20.617Z,99727.86
2023-03-08T17:04:49.901Z,99727.89
2023-03-08T17:07:19.021Z,99726.23
2023-03-08T17:09:50.995Z,99724.16
2023-03-08T17:12:20.261Z,99723.89
2023-03-08T17:14:48.666Z,99721.39
2023-03-08T17:17:19.217Z,99723.28
2023-03-08T17:19:51.640Z,99722.73
2023-03-08T17:22:20.135Z,99724.63
2023-03-08T17:24:50.632Z,99724.45
2023-03-08T17:27:19.164Z,99724.81
2023-03-08T17:29:48.785Z,99723.37
2023-03-08T17:32:18.001Z,99723.80
2023-03-08T17:34:47.043Z,99726.37
2023-03-08T17:37:16.026Z,99722.14
2023-03-08T17:39:45.644Z,99720.45
2023-03-08T17:42:13.953Z,99726.66
2023-03-08T17:44:47.068Z,99727.42
2023-03-08T17:47:19.672Z,99724.72
2023-03-08T17:49:49.038Z,99723.28
2023-03-08T17:52:17.529Z,99719.02
2023-03-08T17:54:48.493Z,99719.48
2023-03-08T17:57:18.876Z,99721.55
2023-03-08T17:59:48.890Z,99721.70
2023-03-08T18:02:18.156Z,99736.12
2023-03-08T18:04:47.501Z,99728.55
2023-03-08T18:07:17.218Z,99742.35
2023-03-08T18:09:46.397Z,99744.28
2023-03-08T18:12:15.995Z,99744.40
2023-03-08T18:14:47.466Z,99742.45
2023-03-08T18:17:15.966Z,99740.60
2023-03-08T18:19:44.430Z,99743.71
2023-03-08T18:22:13.537Z,99740.73
2023-03-08T18:24:45.155Z,99740.48
2023-03-08T18:27:13.870Z,99736.70
2023-03-08T18:29:42.992Z,99737.80
2023-03-08T18:32:12.307Z,99733.41
2023-03-08T18:34:41.791Z,99740.23
2023-03-08T18:37:10.293Z,99735.23
2023-03-08T18:39:39.424Z,99737.77
2023-03-08T18:42:08.580Z,99742.17
2023-03-08T18:44:40.270Z,99744.79
2023-03-08T18:47:08.933Z,99742.65
2023-03-08T18:49:38.498Z,99743.84
2023-03-08T18:52:07.123Z,99744.79
2023-03-08T18:54:41.611Z,99755.15
2023-03-08T18:57:10.545Z,99751.77
2023-03-08T18:59:42.095Z,99756.84
2023-03-08T19:02:13.498Z,99752.98
2023-03-08T19:04:45.197Z,99753.36
2023-03-08T19:07:19.230Z,99755.40
2023-03-08T19:09:59.038Z,99754.56
2023-03-08T19:12:31.355Z,99751.18
2023-03-08T19:15:02.720Z,99755.27
2023-03-08T19:17:31.970Z,99758.23
2023-03-08T19:20:12.851Z,99751.41
2023-03-08T19:22:43.070Z,99751.20
2023-03-08T19:25:12.819Z,99749.61
2023-03-08T19:27:41.264Z,99757.89
2023-03-08T19:30:11.800Z,99753.54
2023-03-08T19:32:42.216Z,99758.81
2023-03-08T19:35:12.252Z,99756.71
2023-03-08T19:37:43.056Z,99756.56
2023-03-08T19:40:12.746Z,99759.95
2023-03-08T19:42:44.800Z,99767.45
2023-03-08T19:45:13.533Z,99770.79
2023-03-08T19:47:43.105Z,99767.15
2023-03-08T19:50:13.509Z,99769.10
2023-03-08T19:52:44.043Z,99773.83
2023-03-08T19:55:18.676Z,99770.13
2023-03-08T19:57:47.398Z,99765.09
2023-03-08T20:01:20.195Z,99766.77
2023-03-08T20:03:51.743Z,99763.56
2023-03-08T20:06:27.320Z,99769.88
2023-03-08T20:09:13.503Z,99770.02
2023-03-08T20:11:46.989Z,99764.42
2023-03-08T20:14:15.926Z,99768.94
2023-03-08T20:17:08.626Z,99772.23
2023-03-08T20:19:40.114Z,99779.64
2023-03-08T20:22:08.581Z,99774.06
2023-03-08T20:24:42.686Z,99769.38
2023-03-08T20:27:11.471Z,99767.36
2023-03-08T20:29:39.956Z,99769.09
2023-03-08T20:32:09.095Z,99771.14
2023-03-08T20:34:39.258Z,99771.84
2023-03-08T20:37:49.700Z,99756.86
2023-03-08T20:41:02.048Z,99756.19
2023-03-08T20:44:12.488Z,99758.71
2023-03-08T20:47:21.040Z,99759.45
2023-03-08T20:50:14.509Z,99760.23
2023-03-08T20:53:16.820Z,99749.89
2023-03-08T20:55:59.547Z,99749.36
2023-03-08T20:58:33.649Z,99743.90
2023-03-08T21:01:14.728Z,99738.85
2023-03-08T21:03:46.567Z,99732.51
2023-03-08T21:06:59.757Z,99731.01
2023-03-08T21:09:40.391Z,99719.52
2023-03-08T21:12:10.080Z,99736.02
2023-03-08T21:14:45.709Z,99730.25
2023-03-08T21:17:15.798Z,99743.22
2023-03-08T21:19:46.640Z,99738.23
2023-03-08T21:22:15.319Z,99737.29
2023-03-08T21:24:43.697Z,99732.18
2023-03-08T21:27:30.416Z,99732.05
2023-03-08T21:30:48.574Z,99731.19
2023-03-08T21:33:29.942Z,99731.14
2023-03-08T21:36:06.546Z,99727.45
2023-03-08T21:38:39.316Z,99725.50
2023-03-08T21:41:21.554Z,99722.84
2023-03-08T21:43:50.426Z,99726.50
2023-03-08T21:46:19.466Z,99726.72
2023-03-08T21:48:52.417Z,99732.25
2023-03-08T21:51:27.363Z,99733.23
2023-03-08T21:53:58.235Z,99730.20
2023-03-08T21:56:26.720Z,99731.63
2023-03-08T21:58:55.864Z,99733.70
2023-03-08T22:01:28.685Z,99727.80
2023-03-08T22:04:02.934Z,99730.25
2023-03-08T22:06:31.834Z,99737.96
2023-03-08T22:09:10.366Z,99742.55
2023-03-08T22:11:42.029Z,99738.91
2023-03-08T22:14:10.940Z,99739.39
2023-03-08T22:16:40.489Z,99740.36
2023-03-08T22:19:09.787Z,99745.53
2023-03-08T22:21:38.247Z,99739.27
2023-03-08T22:24:10.559Z,99744.94
2023-03-08T22:26:43.800Z,99750.73
2023-03-08T22:29:12.251Z,99745.13
2023-03-08T22:31:41.673Z,99742.82
2023-03-08T22:34:11.217Z,99737.22
2023-03-08T22:36:47.768Z,99743.89
2023-03-08T22:39:17.050Z,99749.38
2023-03-08T22:41:45.691Z,99749.06
2023-03-08T22:44:14.743Z,99752.09
2023-03-08T22:46:48.640Z,99746.92
2023-03-08T22:49:17.259Z,99744.96
2023-03-08T22:51:46.065Z,99748.48
2023-03-08T22:54:19.460Z,99753.49
2023-03-08T22:56:49.860Z,99746.88
2023-03-08T22:59:19.051Z,99743.86
2023-03-08T23:01:48.176Z,99744.81
2023-03-08T23:04:16.812Z,99744.27
2023-03-08T23:06:47.879Z,99748.11
2023-03-08T23:09:17.276Z,99750.15
2023-03-08T23:11:45.860Z,99756.79
2023-03-08T23:14:17.010Z,99752.13
2023-03-08T23:16:46.110Z,99750.18
2023-03-08T23:19:19.577Z,99752.88
2023-03-08T23:22:07.822Z,99754.77
2023-03-08T23:24:36.516Z,99751.25
2023-03-08T23:27:05.685Z,99755.45
2023-03-08T23:29:35.725Z,99752.05
2023-03-08T23:32:04.763Z,99748.03
2023-03-08T23:34:33.853Z,99753.86
2023-03-08T23:37:06.036Z,99757.00
2023-03-08T23:39:37.002Z,99758.05
2023-03-08T23:42:06.475Z,99752.39
2023-03-08T23:44:37.763Z,99755.82
2023-03-08T23:47:06.683Z,99762.73
2023-03-08T23:49:36.027Z,99769.70
2023-03-08T23:52:05.342Z,99784.64
2023-03-08T23:54:36.213Z,99789.95
2023-03-08T23:57:04.883Z,99770.73
2023-03-08T23:59:33.696Z,99771.75
